Time;durP1;ratioP1;P1;durP2;ratioP2;P2;SDS_P1;SDS_P2;PMS_P1;PMS_P2;Temp;Humidity;BMP_temperature;BMP_pressure;BME280_temperature;BME280_humidity;BME280_pressure;Samples;Min_cycle;Max_cycle;Signal;HPM_P1;HPM_P2
2023/10/09 06:20:39;;;;;;;3.85;1.17;;;20.50;58.30;;;;;;5057391;28;20076;-71
2023/10/09 06:22:58;;;;;;;2.72;1.00;;;20.50;58.10;;;;;;5072114;28;20082;-71
2023/10/09 06:25:32;;;;;;;3.58;1.48;;;20.50;57.80;;;;;;5071886;28;20402;-69
2023/10/09 06:28:01;;;;;;;5.20;1.60;;;20.60;58.20;;;;;;5072841;28;20166;-71
2023/10/09 06:30:28;;;;;;;4.80;1.30;;;20.50;57.50;;;;;;5070385;28;20077;-70
2023/10/09 06:35:39;;;;;;;5.85;1.20;;;20.40;56.60;;;;;;5071907;28;20033;-70
2023/10/09 06:38:23;;;;;;;4.60;1.13;;;20.40;56.70;;;;;;5067580;28;20037;-71
2023/10/09 06:43:53;;;;;;;3.33;1.25;;;20.40;56.70;;;;;;5071935;28;20127;-70
2023/10/09 06:48:56;;;;;;;5.03;1.40;;;20.40;57.50;;;;;;5067952;28;20513;-70
2023/10/09 07:01:44;;;;;;;2.10;1.20;;;20.30;59.10;;;;;;5046983;28;20082;-69
2023/10/09 07:06:59;;;;;;;5.57;1.30;;;20.20;57.80;;;;;;5058857;28;20580;-69
2023/10/09 07:12:20;;;;;;;5.57;1.27;;;20.20;58.00;;;;;;5039768;28;20502;-68
2023/10/09 07:17:44;;;;;;;5.60;1.40;;;20.20;59.10;;;;;;5052563;28;20053;-69
2023/10/09 07:22:56;;;;;;;5.35;1.65;;;20.10;60.10;;;;;;5069296;28;20037;-69
2023/10/09 07:25:42;;;;;;;4.68;1.40;;;20.10;60.60;;;;;;5070900;28;20043;-69
2023/10/09 07:28:18;;;;;;;4.30;1.33;;;20.10;61.70;;;;;;5049771;28;20037;-68
2023/10/09 07:30:46;;;;;;;3.90;1.27;;;20.00;61.80;;;;;;5068863;28;20064;-69
2023/10/09 07:38:14;;;;;;;6.95;1.65;;;20.00;63.90;;;;;;5053586;28;20102;-69
2023/10/09 07:41:33;;;;;;;8.55;1.58;;;20.00;63.40;;;;;;5071209;28;20470;-69
2023/10/09 07:43:47;;;;;;;4.32;1.67;;;19.90;63.50;;;;;;5058619;28;20044;-69
2023/10/09 07:46:33;;;;;;;5.70;1.40;;;19.90;63.70;;;;;;5070695;28;20115;-69
2023/10/09 07:49:12;;;;;;;6.53;1.50;;;19.80;63.60;;;;;;5068905;28;20041;-69
2023/10/09 07:51:43;;;;;;;6.35;1.60;;;19.80;64.00;;;;;;5070963;28;20048;-69
2023/10/09 07:54:14;;;;;;;7.63;1.92;;;19.80;63.70;;;;;;5050375;28;20054;-69
2023/10/09 07:56:45;;;;;;;4.57;1.65;;;19.80;64.30;;;;;;5056579;28;20033;-69
2023/10/09 07:59:12;;;;;;;9.70;1.80;;;19.70;64.80;;;;;;5053563;28;20033;-68
2023/10/09 08:02:03;;;;;;;7.15;1.75;;;19.70;66.60;;;;;;5052741;28;20143;-70
2023/10/09 08:07:25;;;;;;;6.22;1.80;;;19.60;67.50;;;;;;5043712;28;19908;-70
2023/10/09 08:15:21;;;;;;;6.25;1.75;;;19.50;68.40;;;;;;5050308;28;20047;-69
2023/10/09 08:18:03;;;;;;;9.55;2.22;;;19.50;67.50;;;;;;5063848;28;20119;-70
2023/10/09 08:21:19;;;;;;;5.97;2.15;;;19.40;67.30;;;;;;5069988;28;20047;-70
2023/10/09 08:23:33;;;;;;;5.95;2.70;;;19.50;68.10;;;;;;5068376;28;20465;-71
2023/10/09 08:26:28;;;;;;;9.90;2.45;;;19.40;67.80;;;;;;5070460;28;20116;-71
2023/10/09 08:29:17;;;;;;;8.32;1.75;;;19.40;68.60;;;;;;5035793;28;20056;-69
2023/10/09 08:31:46;;;;;;;9.02;1.90;;;19.40;69.70;;;;;;5049226;28;20053;-68
2023/10/09 08:34:25;;;;;;;8.90;1.73;;;19.30;70.30;;;;;;5062053;28;20028;-69
2023/10/09 08:36:53;;;;;;;10.70;1.70;;;19.40;70.30;;;;;;5069526;28;20082;-69
2023/10/09 08:39:29;;;;;;;8.13;2.10;;;19.30;70.60;;;;;;5052278;28;20044;-69
2023/10/09 09:45:56;;;;;;;4.65;1.13;;;19.00;76.80;;;;;;5064635;28;20105;-67
2023/10/09 09:48:24;;;;;;;7.03;1.50;;;19.00;76.70;;;;;;5028048;28;20054;-67
2023/10/09 09:50:54;;;;;;;6.57;1.85;;;19.00;76.20;;;;;;5031529;28;20136;-69
2023/10/09 09:53:23;;;;;;;9.25;1.90;;;19.00;76.30;;;;;;5013727;28;20033;-69
2023/10/09 09:55:59;;;;;;;10.50;1.30;;;18.90;75.80;;;;;;5032696;28;20037;-70
2023/10/09 09:58:32;;;;;;;6.18;1.20;;;18.90;75.70;;;;;;5032691;28;20037;-68
2023/10/09 10:01:16;;;;;;;6.47;1.38;;;18.80;75.90;;;;;;5015856;28;20047;-67
2023/10/09 10:03:57;;;;;;;11.80;1.88;;;18.90;75.80;;;;;;5033056;28;20690;-69
2023/10/09 10:06:28;;;;;;;7.40;1.52;;;18.80;75.80;;;;;;4999730;28;20490;-69
2023/10/09 10:08:55;;;;;;;6.45;1.45;;;18.80;74.40;;;;;;4996549;28;20032;-69
2023/10/09 10:11:44;;;;;;;7.50;1.65;;;18.80;74.40;;;;;;5032221;28;20407;-68
2023/10/09 10:14:31;;;;;;;6.30;1.40;;;18.80;74.20;;;;;;5032254;28;20088;-69
2023/10/09 11:55:32;;;;;;;8.75;1.60;;;17.80;72.30;;;;;;3283290;26;20045;-76
2023/10/09 11:58:02;;;;;;;8.70;2.27;;;17.90;72.20;;;;;;5030874;28;20053;-77
2023/10/09 12:00:29;;;;;;;6.95;2.20;;;17.80;71.90;;;;;;5030907;28;20034;-77
2023/10/09 12:03:04;;;;;;;5.15;1.55;;;17.90;72.20;;;;;;5030878;28;20164;-77
2023/10/09 12:05:33;;;;;;;7.78;1.80;;;17.80;72.50;;;;;;5029757;28;20430;-77
2023/10/09 12:08:02;;;;;;;5.72;1.70;;;17.80;72.80;;;;;;5012817;28;20056;-76
2023/10/09 12:10:29;;;;;;;7.43;1.90;;;17.70;72.90;;;;;;4996926;28;20496;-77
2023/10/09 12:13:02;;;;;;;5.85;1.77;;;17.70;72.90;;;;;;5030750;28;20041;-78
2023/10/09 12:15:36;;;;;;;5.85;1.73;;;17.70;73.30;;;;;;4998169;28;20026;-78
2023/10/09 12:18:14;;;;;;;8.00;2.30;;;17.70;73.40;;;;;;4997411;28;20048;-75
2023/10/09 12:20:51;;;;;;;6.57;1.70;;;17.60;73.50;;;;;;4998606;28;20444;-76
2023/10/09 12:23:22;;;;;;;7.68;2.53;;;17.70;73.80;;;;;;4998244;28;20041;-79
2023/10/09 12:25:50;;;;;;;11.48;2.65;;;17.70;74.30;;;;;;4993137;28;20137;-76
2023/10/09 12:28:20;;;;;;;7.05;1.90;;;17.70;74.50;;;;;;4993172;28;20492;-81
2023/10/09 12:30:51;;;;;;;34.90;4.47;;;17.70;74.20;;;;;;5012532;28;20052;-79
2023/10/09 12:33:28;;;;;;;48.47;4.97;;;17.70;74.10;;;;;;5015616;28;20476;-79
2023/10/09 12:36:04;;;;;;;59.08;6.40;;;17.60;74.30;;;;;;4998534;28;20079;-79
2023/10/09 12:38:32;;;;;;;43.08;5.28;;;17.60;74.40;;;;;;5000626;28;20030;-79
2023/10/09 12:41:19;;;;;;;36.75;5.05;;;17.70;74.70;;;;;;5015088;28;20037;-79
2023/10/09 12:43:47;;;;;;;65.95;6.55;;;17.70;74.80;;;;;;5002001;28;20511;-79
2023/10/09 12:46:17;;;;;;;102.65;7.28;;;17.70;74.90;;;;;;5032699;28;20052;-80
2023/10/09 12:48:48;;;;;;;106.15;8.68;;;17.70;75.30;;;;;;5032886;28;20022;-80
2023/10/09 12:51:17;;;;;;;;;;;17.70;75.60;;;;;;5033151;28;20132;-79
2023/10/09 12:53:45;;;;;;;96.82;7.45;;;17.70;75.80;;;;;;5031338;28;20351;-79
2023/10/09 12:56:13;;;;;;;58.67;5.13;;;17.70;76.10;;;;;;5032039;28;20040;-79
2023/10/09 12:58:52;;;;;;;32.78;4.13;;;17.70;76.70;;;;;;5051728;28;20041;-79
2023/10/09 13:01:20;;;;;;;25.02;3.45;;;17.60;77.00;;;;;;5052349;28;20110;-80
2023/10/09 13:03:50;;;;;;;23.52;3.08;;;17.70;77.50;;;;;;5051791;28;20131;-79
2023/10/09 13:06:23;;;;;;;;;;;17.60;77.60;;;;;;5035239;28;20025;-80
2023/10/09 13:08:51;;;;;;;16.55;2.50;;;17.60;78.10;;;;;;5051758;28;20003;-80
2023/10/09 13:11:19;;;;;;;17.75;2.80;;;17.60;78.30;;;;;;5034750;28;20037;-79
2023/10/09 13:13:52;;;;;;;7.30;2.20;;;17.60;78.60;;;;;;5052291;28;20033;-80
2023/10/09 13:16:23;;;;;;;20.13;2.30;;;17.70;78.70;;;;;;5035333;28;20029;-80
2023/10/09 13:18:58;;;;;;;6.60;2.13;;;17.70;78.90;;;;;;5019012;28;20040;-79
2023/10/09 13:21:26;;;;;;;11.13;2.38;;;17.70;79.40;;;;;;5052256;28;20071;-80
2023/10/09 13:23:57;;;;;;;9.38;2.33;;;17.70;79.40;;;;;;5034000;28;20250;-79
2023/10/09 13:26:34;;;;;;;8.25;2.38;;;17.70;79.60;;;;;;5032443;28;20032;-80
2023/10/09 13:29:02;;;;;;;6.50;2.00;;;17.70;79.60;;;;;;5032514;28;20417;-79
2023/10/09 13:31:33;;;;;;;9.55;2.30;;;17.70;79.70;;;;;;5018104;28;20041;-79
2023/10/09 13:34:03;;;;;;;9.63;2.42;;;17.70;79.90;;;;;;5050252;28;20108;-79
2023/10/09 13:36:33;;;;;;;10.55;2.55;;;17.70;80.10;;;;;;5034262;28;20116;-80
2023/10/09 13:39:25;;;;;;;14.48;2.65;;;17.70;80.10;;;;;;5051781;28;20024;-79
2023/10/09 13:41:59;;;;;;;14.63;3.17;;;17.70;80.10;;;;;;5036342;28;20063;-79
2023/10/09 13:44:27;;;;;;;15.05;2.65;;;17.60;80.50;;;;;;5001030;28;20069;-80
2023/10/09 13:46:57;;;;;;;14.02;3.08;;;17.60;80.80;;;;;;5015969;28;20040;-79
2023/10/09 13:49:29;;;;;;;;;;;17.50;80.70;;;;;;5018367;28;20040;-80
2023/10/09 13:51:57;;;;;;;13.40;2.40;;;17.50;80.50;;;;;;5034030;28;20296;-80
2023/10/09 13:57:04;;;;;;;13.75;3.25;;;17.40;80.90;;;;;;5019881;28;20043;-80
2023/10/09 13:59:30;;;;;;;;;;;17.50;81.50;;;;;;5003642;28;20029;-79
2023/10/09 14:01:59;;;;;;;14.55;3.20;;;17.50;82.20;;;;;;5034848;28;19909;-79
2023/10/09 14:04:26;;;;;;;22.02;2.80;;;17.50;82.50;;;;;;5033448;28;20151;-80
2023/10/09 14:07:01;;;;;;;9.68;2.67;;;17.50;82.60;;;;;;5017826;28;20029;-79
2023/10/09 14:09:32;;;;;;;17.17;2.95;;;17.50;83.00;;;;;;5033797;28;20040;-80
2023/10/09 14:12:14;;;;;;;18.92;3.35;;;17.60;82.80;;;;;;5017733;28;20125;-79
2023/10/09 14:14:48;;;;;;;10.45;2.63;;;17.60;83.00;;;;;;5050643;28;20140;-79
2023/10/09 14:17:19;;;;;;;10.77;2.35;;;17.60;83.10;;;;;;5019205;28;20395;-80
2023/10/09 14:19:48;;;;;;;14.82;2.97;;;17.60;83.50;;;;;;5013181;28;20053;-79
2023/10/09 14:22:16;;;;;;;17.80;3.20;;;17.60;83.90;;;;;;4997895;28;20495;-78
2023/10/09 14:24:47;;;;;;;16.98;3.05;;;17.70;84.20;;;;;;5031447;28;20048;-80
2023/10/09 14:27:20;;;;;;;12.57;3.05;;;17.70;84.20;;;;;;5051727;28;20025;-79
2023/10/09 14:29:51;;;;;;;18.75;3.47;;;17.60;84.30;;;;;;5052977;28;20033;-80
2023/10/09 14:32:19;;;;;;;15.85;3.58;;;17.50;84.40;;;;;;5035711;28;20045;-79
2023/10/09 14:34:49;;;;;;;16.17;3.63;;;17.50;84.60;;;;;;5019686;28;20033;-79
2023/10/09 14:37:18;;;;;;;17.52;4.40;;;17.50;84.80;;;;;;5035898;28;20377;-79
2023/10/09 14:39:49;;;;;;;26.00;4.97;;;17.40;85.20;;;;;;5021267;28;20029;-79
2023/10/09 14:42:16;;;;;;;;;;;17.50;85.40;;;;;;5032455;28;20044;-80
2023/10/09 14:44:45;;;;;;;23.98;4.15;;;17.40;85.40;;;;;;5053643;28;19947;-79
2023/10/09 14:47:14;;;;;;;25.92;5.00;;;17.40;85.60;;;;;;5021744;28;20060;-79
2023/10/09 14:49:44;;;;;;;32.00;4.50;;;17.40;85.60;;;;;;5021512;28;20450;-79
2023/10/09 14:52:12;;;;;;;21.88;4.80;;;17.40;85.80;;;;;;5020032;28;20080;-79
2023/10/09 14:54:39;;;;;;;24.80;4.07;;;17.40;85.90;;;;;;5036784;28;20438;-79
2023/10/09 14:57:06;;;;;;;16.20;3.50;;;17.40;86.10;;;;;;5037714;28;20033;-79
2023/10/09 14:59:34;;;;;;;21.48;3.97;;;17.40;86.10;;;;;;5037071;28;20476;-79
2023/10/09 15:02:02;;;;;;;19.90;3.78;;;17.40;86.00;;;;;;5035708;28;20043;-79
2023/10/09 15:04:29;;;;;;;17.30;3.42;;;17.40;86.20;;;;;;5037427;28;20594;-79
2023/10/09 15:06:56;;;;;;;20.73;3.35;;;17.50;86.00;;;;;;5004112;28;20037;-78
2023/10/09 15:09:28;;;;;;;17.95;3.65;;;17.40;86.20;;;;;;5020024;28;20037;-79
2023/10/09 15:11:55;;;;;;;18.08;3.63;;;17.40;86.50;;;;;;5036265;28;20068;-79
2023/10/09 15:14:23;;;;;;;12.18;2.90;;;17.50;86.50;;;;;;5020313;28;20498;-79
2023/10/09 15:16:50;;;;;;;17.20;2.92;;;17.40;86.60;;;;;;5037066;28;20056;-79
2023/10/09 15:19:18;;;;;;;15.18;3.08;;;17.50;86.60;;;;;;5020692;28;20035;-78
2023/10/09 15:21:45;;;;;;;10.27;2.78;;;17.40;86.90;;;;;;5019326;28;20151;-79
2023/10/09 15:24:19;;;;;;;14.25;2.90;;;17.40;86.90;;;;;;5019901;28;20044;-79
2023/10/09 15:26:52;;;;;;;11.63;2.83;;;17.40;86.90;;;;;;5036176;28;20057;-79
2023/10/09 15:29:27;;;;;;;9.13;2.58;;;17.40;86.90;;;;;;5020694;28;20041;-78
2023/10/09 15:32:05;;;;;;;10.52;2.78;;;17.40;86.90;;;;;;5019612;28;20406;-79
2023/10/09 15:34:35;;;;;;;11.75;2.50;;;17.40;86.70;;;;;;5004636;28;20387;-79
2023/10/09 15:37:07;;;;;;;7.38;2.72;;;17.40;86.80;;;;;;5020225;28;20103;-79
2023/10/09 15:39:37;;;;;;;17.17;2.83;;;17.40;86.90;;;;;;5020734;28;20494;-78
2023/10/09 15:42:06;;;;;;;14.93;2.95;;;17.40;86.80;;;;;;5034167;28;20067;-79
2023/10/09 15:44:36;;;;;;;12.45;3.55;;;17.30;87.10;;;;;;5018540;28;20036;-79
2023/10/09 15:47:08;;;;;;;13.43;3.17;;;17.30;87.00;;;;;;5054253;28;20561;-79
2023/10/09 15:49:41;;;;;;;13.90;2.92;;;17.30;87.00;;;;;;5004056;28;20447;-78
